createdAt,value
2022-12-01T00:00:39.697Z,0.00
2022-12-01T00:01:40.983Z,0.00
2022-12-01T00:02:40.395Z,0.00
2022-12-01T00:03:43.601Z,0.00
2022-12-01T00:04:39.852Z,0.00
2022-12-01T00:05:42.203Z,0.00
2022-12-01T00:06:41.465Z,0.00
2022-12-01T00:07:39.683Z,0.00
2022-12-01T00:08:54.462Z,0.00
2022-12-01T00:10:39.488Z,0.00
2022-12-01T00:11:41.822Z,0.00
2022-12-01T00:12:41.092Z,0.00
2022-12-01T00:13:39.337Z,0.00
2022-12-01T00:14:40.650Z,0.00
2022-12-01T00:15:54.472Z,0.00
2022-12-01T00:16:39.227Z,0.00
2022-12-01T00:17:40.532Z,0.00
2022-12-01T00:19:39.124Z,0.00
2022-12-01T00:20:41.588Z,0.00
2022-12-01T00:21:41.775Z,0.00
2022-12-01T00:24:39.557Z,0.00
2022-12-01T00:26:06.346Z,0.00
2022-12-01T00:26:40.139Z,0.00
2022-12-01T00:27:39.361Z,0.00
2022-12-01T00:28:39.167Z,0.00
2022-12-01T00:29:39.492Z,0.00
2022-12-01T00:30:54.362Z,0.00
2022-12-01T00:31:39.221Z,0.00
2022-12-01T00:32:39.393Z,0.00
2022-12-01T00:33:54.236Z,0.00
2022-12-01T00:34:39.999Z,0.00
2022-12-01T00:35:38.906Z,0.00
2022-12-01T00:36:39.277Z,0.00
2022-12-01T00:37:39.517Z,0.00
2022-12-01T00:38:39.819Z,0.00
2022-12-01T00:39:39.082Z,0.00
2022-12-01T00:40:53.987Z,0.00
2022-12-01T00:41:40.836Z,0.00
2022-12-01T00:42:38.971Z,0.00
2022-12-01T00:43:39.273Z,0.00
2022-12-01T00:44:54.136Z,0.00
2022-12-01T00:45:40.997Z,0.00
2022-12-01T00:46:39.942Z,0.00
2022-12-01T00:47:54.140Z,0.00
2022-12-01T00:48:39.798Z,0.00
2022-12-01T00:49:39.087Z,0.00
2022-12-01T00:50:53.946Z,0.00
2022-12-01T00:51:39.692Z,0.00
2022-12-01T00:52:38.962Z,0.00
2022-12-01T00:53:39.352Z,0.00
2022-12-01T00:54:38.532Z,0.00
2022-12-01T00:55:38.857Z,0.00
2022-12-01T00:56:53.752Z,0.00
2022-12-01T00:57:40.507Z,0.00
2022-12-01T00:58:38.767Z,0.00
2022-12-01T00:59:53.607Z,0.00
2022-12-01T01:00:40.391Z,0.00
2022-12-01T01:01:38.726Z,0.00
2022-12-01T01:02:40.053Z,0.00
2022-12-01T01:03:40.352Z,0.00
2022-12-01T01:04:41.647Z,0.00
2022-12-01T01:05:38.827Z,0.00
2022-12-01T01:06:42.267Z,0.00
2022-12-01T01:07:38.450Z,0.00
2022-12-01T01:08:39.759Z,0.00
2022-12-01T01:09:39.211Z,0.00
2022-12-01T01:10:38.312Z,0.00
2022-12-01T01:11:39.662Z,0.00
2022-12-01T01:12:42.067Z,0.00
2022-12-01T01:13:42.302Z,0.00
2022-12-01T01:14:38.552Z,0.00
2022-12-01T01:15:42.481Z,0.00
2022-12-01T01:16:53.948Z,0.00
2022-12-01T01:17:40.534Z,0.00
2022-12-01T01:18:38.797Z,0.00
2022-12-01T01:19:40.116Z,0.00
2022-12-01T01:20:38.340Z,0.00
2022-12-01T01:21:40.778Z,0.04
2022-12-01T01:22:53.560Z,0.00
2022-12-01T01:23:40.344Z,0.00
2022-12-01T01:24:38.571Z,0.00
2022-12-01T01:25:46.146Z,0.00
2022-12-01T01:26:39.176Z,0.00
2022-12-01T01:27:38.546Z,0.00
2022-12-01T01:28:46.046Z,0.00
2022-12-01T01:29:45.351Z,0.00
2022-12-01T01:30:40.422Z,0.00
2022-12-01T01:31:39.646Z,0.00
2022-12-01T01:32:40.022Z,0.00
2022-12-01T01:33:41.299Z,0.00
2022-12-01T01:34:39.517Z,0.00
2022-12-01T01:35:38.788Z,0.00
2022-12-01T01:36:39.858Z,0.00
2022-12-01T01:37:38.038Z,0.00
2022-12-01T01:38:52.991Z,0.00
2022-12-01T01:39:39.717Z,0.00
2022-12-01T01:40:37.967Z,0.00
2022-12-01T01:41:45.568Z,0.00
2022-12-01T01:42:40.700Z,0.00
2022-12-01T01:43:37.876Z,0.00
2022-12-01T01:44:40.133Z,0.00
2022-12-01T01:45:38.201Z,0.00
2022-12-01T01:46:53.067Z,0.00
2022-12-01T01:47:39.812Z,0.00
2022-12-01T01:48:38.027Z,0.00
2022-12-01T01:49:38.338Z,0.00
2022-12-01T01:50:40.817Z,0.00
2022-12-01T01:51:37.918Z,0.00
2022-12-01T01:52:41.357Z,0.00
2022-12-01T01:53:38.547Z,0.00
2022-12-01T01:54:41.871Z,0.00
2022-12-01T01:55:52.808Z,0.00
2022-12-01T01:57:38.726Z,0.00
2022-12-01T01:58:37.988Z,0.00
2022-12-01T01:59:38.289Z,0.00
2022-12-01T02:00:39.557Z,0.00
2022-12-01T02:01:38.028Z,0.00
2022-12-01T02:02:38.243Z,0.00
2022-12-01T02:03:38.521Z,0.00
2022-12-01T02:04:37.806Z,0.00
2022-12-01T02:05:38.097Z,0.00
2022-12-01T02:06:38.584Z,0.00
2022-12-01T02:07:37.779Z,0.00
2022-12-01T02:08:38.076Z,0.00
2022-12-01T02:09:38.416Z,0.04
2022-12-01T02:10:37.697Z,0.00
2022-12-01T02:11:37.997Z,0.00
2022-12-01T02:12:38.707Z,0.00
2022-12-01T02:13:38.882Z,0.00
2022-12-01T02:14:38.157Z,0.00
2022-12-01T02:15:38.456Z,0.00
2022-12-01T02:16:38.856Z,0.00
2022-12-01T02:17:41.983Z,0.00
2022-12-01T02:18:39.416Z,0.00
2022-12-01T02:19:37.669Z,0.00
2022-12-01T02:20:37.946Z,0.00
2022-12-01T02:21:52.806Z,0.00
2022-12-01T02:22:39.601Z,0.00
2022-12-01T02:23:37.941Z,0.00
2022-12-01T02:24:38.085Z,0.00
2022-12-01T02:25:44.637Z,0.00
2022-12-01T02:26:37.677Z,0.00
2022-12-01T02:28:17.446Z,0.00
2022-12-01T02:28:38.230Z,0.00
2022-12-01T02:29:37.476Z,0.00
2022-12-01T02:30:44.475Z,0.00
2022-12-01T02:31:39.431Z,0.00
2022-12-01T02:32:38.685Z,0.00
2022-12-01T02:33:39.156Z,0.00
2022-12-01T02:34:38.206Z,0.00
2022-12-01T02:35:38.497Z,0.00
2022-12-01T02:36:38.789Z,0.00
2022-12-01T02:37:38.038Z,0.00
2022-12-01T02:39:28.276Z,0.00
2022-12-01T02:39:37.616Z,0.00
2022-12-01T02:40:37.926Z,0.02
2022-12-01T02:42:28.156Z,0.00
2022-12-01T02:42:37.516Z,0.04
2022-12-01T02:43:37.842Z,0.00
2022-12-01T02:44:52.757Z,0.00
2022-12-01T02:45:38.511Z,0.00
2022-12-01T02:46:37.807Z,0.00
2022-12-01T02:47:38.106Z,0.00
2022-12-01T02:48:39.461Z,0.00
2022-12-01T02:50:03.171Z,0.00
2022-12-01T02:50:37.416Z,0.00
2022-12-01T02:51:40.856Z,0.00
2022-12-01T02:52:37.047Z,0.00
2022-12-01T02:53:38.386Z,0.00
2022-12-01T02:54:38.702Z,0.00
2022-12-01T02:55:36.966Z,0.00
2022-12-01T02:57:03.256Z,0.00
2022-12-01T02:57:38.566Z,0.00
2022-12-01T02:58:37.811Z,0.00
2022-12-01T02:59:39.316Z,0.00
2022-12-01T03:01:08.930Z,0.00
2022-12-01T03:01:37.049Z,0.00
2022-12-01T03:03:37.296Z,0.00
2022-12-01T03:04:37.635Z,0.00
2022-12-01T03:05:36.986Z,0.00
2022-12-01T03:06:37.806Z,0.02
2022-12-01T03:08:36.906Z,0.00
2022-12-01T03:10:04.547Z,0.00
2022-12-01T03:10:37.829Z,0.00
2022-12-01T03:11:37.106Z,0.00
2022-12-01T03:13:37.709Z,0.00
2022-12-01T03:14:36.989Z,0.00
2022-12-01T03:15:37.399Z,0.00
2022-12-01T03:16:37.676Z,0.00
2022-12-01T03:17:37.956Z,0.00
2022-12-01T03:18:37.227Z,0.00
2022-12-01T03:19:37.576Z,0.04
2022-12-01T03:20:37.865Z,0.00
2022-12-01T03:21:38.222Z,0.00
2022-12-01T03:22:38.505Z,0.00
2022-12-01T03:23:37.779Z,0.00
2022-12-01T03:24:37.071Z,0.00
2022-12-01T03:26:16.943Z,0.00
2022-12-01T03:26:36.680Z,0.00
2022-12-01T03:27:37.085Z,0.00
2022-12-01T03:28:43.581Z,0.00
2022-12-01T03:29:37.656Z,0.00
2022-12-01T03:30:37.977Z,0.00
2022-12-01T03:31:44.609Z,0.00
2022-12-01T03:32:43.893Z,0.00
2022-12-01T03:33:37.906Z,0.00
2022-12-01T03:34:38.247Z,0.00
2022-12-01T03:35:37.457Z,0.00
2022-12-01T03:36:38.900Z,0.00
2022-12-01T03:37:51.747Z,0.00
2022-12-01T03:38:37.419Z,0.00
2022-12-01T03:39:36.695Z,0.00
2022-12-01T03:40:38.027Z,0.00
2022-12-01T03:41:38.379Z,0.00
2022-12-01T03:42:36.539Z,0.00
2022-12-01T03:43:38.937Z,0.00
2022-12-01T03:44:38.206Z,0.00
2022-12-01T03:46:37.809Z,0.00
2022-12-01T03:47:37.016Z,0.00
2022-12-01T03:48:38.346Z,0.00
2022-12-01T03:49:37.660Z,0.00
2022-12-01T03:50:37.922Z,0.00
2022-12-01T03:51:37.152Z,0.00
2022-12-01T03:52:37.467Z,0.00
2022-12-01T03:54:26.618Z,0.00
2022-12-01T03:54:36.991Z,0.00
2022-12-01T03:55:36.291Z,0.00
2022-12-01T03:56:37.621Z,0.00
2022-12-01T03:58:01.851Z,0.00
2022-12-01T03:58:36.145Z,0.02
2022-12-01T03:59:36.317Z,0.00
2022-12-01T04:01:37.975Z,0.00
2022-12-01T04:02:36.332Z,0.00
2022-12-01T04:03:36.558Z,0.00
2022-12-01T04:05:37.158Z,0.00
2022-12-01T04:06:36.446Z,0.00
2022-12-01T04:07:36.767Z,0.00
2022-12-01T04:08:37.046Z,0.00
2022-12-01T04:09:36.316Z,0.00
2022-12-01T04:10:37.719Z,0.00
2022-12-01T04:11:36.921Z,0.04
2022-12-01T04:12:37.126Z,0.00
2022-12-01T04:13:36.542Z,0.00
2022-12-01T04:14:36.786Z,0.00
2022-12-01T04:15:37.126Z,0.00
2022-12-01T04:16:36.493Z,0.00
2022-12-01T04:17:36.676Z,0.00
2022-12-01T04:18:35.948Z,0.00
2022-12-01T04:19:36.282Z,0.00
2022-12-01T04:20:37.525Z,0.04
2022-12-01T04:21:35.927Z,0.00
2022-12-01T04:22:36.610Z,0.04
2022-12-01T04:23:38.661Z,0.00
2022-12-01T04:24:35.921Z,0.00
2022-12-01T04:25:37.196Z,0.00
2022-12-01T04:26:36.575Z,0.00
2022-12-01T04:27:35.854Z,0.00
2022-12-01T04:28:36.176Z,0.00
2022-12-01T04:29:36.947Z,0.00
2022-12-01T04:30:36.191Z,0.00
2022-12-01T04:31:36.576Z,0.00
2022-12-01T04:32:36.762Z,0.00
2022-12-01T04:33:36.032Z,0.00
2022-12-01T04:34:36.340Z,0.00
2022-12-01T04:35:36.611Z,0.00
2022-12-01T04:36:36.885Z,0.00
2022-12-01T04:37:37.284Z,0.00
2022-12-01T04:38:36.507Z,0.00
2022-12-01T04:39:36.842Z,0.00
2022-12-01T04:40:36.101Z,0.00
2022-12-01T04:41:36.408Z,0.00
2022-12-01T04:42:36.714Z,0.00
2022-12-01T04:43:35.814Z,0.00
2022-12-01T04:44:36.092Z,0.00
2022-12-01T04:46:37.675Z,0.00
2022-12-01T04:47:36.978Z,0.00
2022-12-01T04:48:36.214Z,0.00
2022-12-01T04:49:35.456Z,0.00
2022-12-01T04:50:35.742Z,0.00
2022-12-01T04:51:36.109Z,0.00
2022-12-01T04:52:36.342Z,0.00
2022-12-01T04:53:36.695Z,0.00
2022-12-01T04:54:35.926Z,0.00
2022-12-01T04:55:37.164Z,0.00
2022-12-01T04:56:36.526Z,0.00
2022-12-01T04:57:36.804Z,0.00
2022-12-01T04:58:36.031Z,0.00
2022-12-01T04:59:36.127Z,0.00
2022-12-01T05:00:35.415Z,0.00
2022-12-01T05:01:35.716Z,0.00
2022-12-01T05:02:37.090Z,0.00
2022-12-01T05:03:36.243Z,0.00
2022-12-01T05:04:35.511Z,0.00
2022-12-01T05:05:36.836Z,0.00
2022-12-01T05:06:36.097Z,0.00
2022-12-01T05:07:35.423Z,0.00
2022-12-01T05:08:36.811Z,0.00
2022-12-01T05:09:36.986Z,0.00
2022-12-01T05:10:35.223Z,0.00
2022-12-01T05:11:35.486Z,0.00
2022-12-01T05:12:36.807Z,0.00
2022-12-01T05:13:36.068Z,0.00
2022-12-01T05:14:36.352Z,0.00
2022-12-01T05:15:36.616Z,0.00
2022-12-01T05:16:35.965Z,0.00
2022-12-01T05:17:37.289Z,0.00
2022-12-01T05:18:37.471Z,0.00
2022-12-01T05:19:37.806Z,0.00
2022-12-01T05:20:37.246Z,0.00
2022-12-01T05:23:04.201Z,0.00
2022-12-01T05:23:36.767Z,0.00
2022-12-01T05:24:35.045Z,0.00
2022-12-01T05:25:35.576Z,0.00
2022-12-01T05:26:35.606Z,0.00
2022-12-01T05:27:36.832Z,0.00
2022-12-01T05:29:35.414Z,0.00
2022-12-01T05:30:35.701Z,0.00
2022-12-01T05:31:36.176Z,0.00
2022-12-01T05:32:35.267Z,0.00
2022-12-01T05:33:35.593Z,0.00
2022-12-01T05:34:35.897Z,0.00
2022-12-01T05:35:35.166Z,0.00
2022-12-01T05:36:35.567Z,0.00
2022-12-01T05:37:36.881Z,0.00
2022-12-01T05:38:35.048Z,0.00
2022-12-01T05:39:35.362Z,0.00
2022-12-01T05:40:36.638Z,0.00
2022-12-01T05:41:37.031Z,0.00
2022-12-01T05:42:35.221Z,0.00
2022-12-01T05:43:35.526Z,0.00
2022-12-01T05:44:42.183Z,0.00
2022-12-01T05:45:35.177Z,0.05
2022-12-01T05:46:38.576Z,0.00
2022-12-01T05:47:36.743Z,0.00
2022-12-01T05:48:34.947Z,0.00
2022-12-01T05:49:36.302Z,0.00
2022-12-01T05:50:35.571Z,0.00
2022-12-01T05:51:34.937Z,0.00
2022-12-01T05:52:38.302Z,0.00
2022-12-01T05:53:37.537Z,0.00
2022-12-01T05:54:34.711Z,0.00
2022-12-01T05:55:36.065Z,0.00
2022-12-01T05:56:35.894Z,0.00
2022-12-01T05:57:36.216Z,0.00
2022-12-01T05:58:35.566Z,0.00
2022-12-01T05:59:36.811Z,0.00
2022-12-01T06:00:35.045Z,0.00
2022-12-01T06:01:35.373Z,0.00
2022-12-01T06:02:34.612Z,0.00
2022-12-01T06:03:34.891Z,0.00
2022-12-01T06:04:35.413Z,0.00
2022-12-01T06:05:34.932Z,0.00
2022-12-01T06:06:35.243Z,0.00
2022-12-01T06:07:36.617Z,0.00
2022-12-01T06:08:36.911Z,0.11
2022-12-01T06:09:35.126Z,0.31
2022-12-01T06:10:37.511Z,0.31
2022-12-01T06:11:37.813Z,0.30
2022-12-01T06:12:34.978Z,0.30
2022-12-01T06:13:37.392Z,0.00
2022-12-01T06:14:35.736Z,0.00
2022-12-01T06:15:34.913Z,0.00
2022-12-01T06:16:38.283Z,0.00
2022-12-01T06:17:40.361Z,0.08
2022-12-01T06:18:37.935Z,0.07
2022-12-01T06:19:35.101Z,0.08
2022-12-01T06:20:37.771Z,0.08
2022-12-01T06:21:37.782Z,0.08
2022-12-01T06:22:34.942Z,0.08
2022-12-01T06:23:37.616Z,0.08
2022-12-01T06:24:37.692Z,0.08
2022-12-01T06:25:34.820Z,0.07
2022-12-01T06:26:37.523Z,0.08
2022-12-01T06:27:37.472Z,0.08
2022-12-01T06:28:34.633Z,0.08
2022-12-01T06:29:41.944Z,0.09
2022-12-01T06:30:35.232Z,0.08
2022-12-01T06:31:37.725Z,0.07
2022-12-01T06:32:35.885Z,0.08
2022-12-01T06:33:34.087Z,0.09
2022-12-01T06:34:35.432Z,0.09
2022-12-01T06:35:34.672Z,0.10
2022-12-01T06:36:34.945Z,0.10
2022-12-01T06:37:37.347Z,0.11
2022-12-01T06:38:34.484Z,0.11
2022-12-01T06:39:36.862Z,0.12
2022-12-01T06:40:36.106Z,0.15
2022-12-01T06:41:34.331Z,0.15
2022-12-01T06:42:34.667Z,0.16
2022-12-01T06:43:34.991Z,0.17
2022-12-01T06:44:34.202Z,0.19
2022-12-01T06:45:34.602Z,0.24
2022-12-01T06:46:34.940Z,0.29
2022-12-01T06:47:34.071Z,0.34
2022-12-01T06:48:34.404Z,0.41
2022-12-01T06:49:34.721Z,0.51
2022-12-01T06:50:33.951Z,0.59
2022-12-01T06:51:34.271Z,0.65
2022-12-01T06:52:34.594Z,0.73
2022-12-01T06:53:33.867Z,0.79
2022-12-01T06:54:34.182Z,0.88
2022-12-01T06:55:34.482Z,0.99
2022-12-01T06:56:34.793Z,1.18
2022-12-01T06:57:34.032Z,1.42
2022-12-01T06:58:35.271Z,1.68
2022-12-01T06:59:34.605Z,1.94
2022-12-01T07:00:34.911Z,2.21
2022-12-01T07:01:34.255Z,2.52
2022-12-01T07:02:34.458Z,2.82
2022-12-01T07:03:37.861Z,3.17
2022-12-01T07:04:34.042Z,3.52
2022-12-01T07:05:34.275Z,3.89
2022-12-01T07:06:34.611Z,4.47
2022-12-01T07:07:34.820Z,5.04
2022-12-01T07:08:34.143Z,6.12
2022-12-01T07:09:40.697Z,7.43
2022-12-01T07:10:34.787Z,8.61
2022-12-01T07:11:41.445Z,10.49
2022-12-01T07:12:34.357Z,10.33
2022-12-01T07:13:34.677Z,11.89
2022-12-01T07:14:33.946Z,12.89
2022-12-01T07:15:34.292Z,13.97
2022-12-01T07:16:35.655Z,13.97
2022-12-01T07:17:41.141Z,13.41
2022-12-01T07:18:34.113Z,12.87
2022-12-01T07:19:34.472Z,13.03
2022-12-01T07:20:33.726Z,13.64
2022-12-01T07:21:33.992Z,14.12
2022-12-01T07:22:35.286Z,13.84
2022-12-01T07:23:33.648Z,13.18
2022-12-01T07:24:48.498Z,12.14
2022-12-01T07:25:35.236Z,11.35
2022-12-01T07:26:33.447Z,11.04
2022-12-01T07:27:48.293Z,10.42
2022-12-01T07:28:34.049Z,10.16
2022-12-01T07:29:33.313Z,9.81
2022-12-01T07:30:33.694Z,9.29
2022-12-01T07:31:33.936Z,9.01
2022-12-01T07:32:34.238Z,9.26
2022-12-01T07:33:33.525Z,10.88
2022-12-01T07:34:48.652Z,12.50
2022-12-01T07:36:01.212Z,13.03
2022-12-01T07:36:33.454Z,13.88
2022-12-01T07:37:36.903Z,15.31
2022-12-01T07:38:35.047Z,15.40
2022-12-01T07:39:33.406Z,14.99
2022-12-01T07:41:13.685Z,14.19
2022-12-01T07:41:34.116Z,14.02
2022-12-01T07:42:33.367Z,14.29
2022-12-01T07:43:33.688Z,14.66
2022-12-01T07:44:34.023Z,14.73
2022-12-01T07:45:33.328Z,14.98
2022-12-01T07:46:34.794Z,15.17
2022-12-01T07:47:48.541Z,15.45
2022-12-01T07:48:48.895Z,15.04
2022-12-01T07:49:33.582Z,14.81
2022-12-01T07:51:24.461Z,15.05
2022-12-01T07:51:33.226Z,15.08
2022-12-01T07:52:34.701Z,15.28
2022-12-01T07:53:34.046Z,15.48
2022-12-01T07:54:35.428Z,15.90
2022-12-01T07:55:33.523Z,16.49
2022-12-01T07:57:06.116Z,17.21
2022-12-01T07:57:33.067Z,17.40
2022-12-01T07:58:33.457Z,17.69
2022-12-01T07:59:33.741Z,17.68
2022-12-01T08:01:01.231Z,17.53
2022-12-01T08:01:33.390Z,17.71
2022-12-01T08:02:34.772Z,17.93
2022-12-01T08:03:32.961Z,18.11
2022-12-01T08:05:06.656Z,18.98
2022-12-01T08:05:33.702Z,19.42
2022-12-01T08:06:33.881Z,20.23
2022-12-01T08:07:33.240Z,21.29
2022-12-01T08:08:33.766Z,22.76
2022-12-01T08:09:32.924Z,24.63
2022-12-01T08:10:33.207Z,27.01
2022-12-01T08:11:33.492Z,29.00
2022-12-01T08:12:32.777Z,30.64
2022-12-01T08:13:33.101Z,31.45
2022-12-01T08:14:33.447Z,31.42
2022-12-01T08:15:32.905Z,31.57
2022-12-01T08:16:33.552Z,31.71
2022-12-01T08:17:33.417Z,31.54
2022-12-01T08:18:35.801Z,31.33
2022-12-01T08:19:36.123Z,31.21
2022-12-01T08:20:33.336Z,31.16
2022-12-01T08:21:33.712Z,31.29
2022-12-01T08:22:32.956Z,31.21
2022-12-01T08:23:33.197Z,31.34
2022-12-01T08:24:33.572Z,32.19
2022-12-01T08:25:32.772Z,32.10
2022-12-01T08:26:34.022Z,33.01
2022-12-01T08:27:33.469Z,33.08
2022-12-01T08:28:32.738Z,32.41
2022-12-01T08:29:33.056Z,30.48
2022-12-01T08:30:33.367Z,28.98
2022-12-01T08:31:32.699Z,28.26
2022-12-01T08:32:32.951Z,27.33
2022-12-01T08:33:33.466Z,25.41
2022-12-01T08:34:32.536Z,23.77
2022-12-01T08:35:33.772Z,22.14
2022-12-01T08:36:33.132Z,22.08
2022-12-01T08:37:36.456Z,21.64
2022-12-01T08:38:33.757Z,22.36
2022-12-01T08:39:33.093Z,22.63
2022-12-01T08:40:33.462Z,22.86
2022-12-01T08:41:32.637Z,23.49
2022-12-01T08:42:32.962Z,23.29
2022-12-01T08:44:34.782Z,22.23
2022-12-01T08:45:32.886Z,21.83
2022-12-01T08:46:33.256Z,20.98
2022-12-01T08:47:32.337Z,20.64
2022-12-01T08:48:32.691Z,21.62
2022-12-01T08:49:33.067Z,23.86
2022-12-01T08:50:33.448Z,26.23
2022-12-01T08:51:32.496Z,29.31
2022-12-01T08:52:32.791Z,32.47
2022-12-01T08:53:33.284Z,35.61
2022-12-01T08:54:32.493Z,38.05
2022-12-01T08:55:33.035Z,39.09
2022-12-01T08:56:33.254Z,41.03
2022-12-01T08:57:32.339Z,41.90
2022-12-01T08:58:32.671Z,41.39
2022-12-01T08:59:33.823Z,40.45
2022-12-01T09:00:34.100Z,41.11
2022-12-01T09:01:32.419Z,40.52
2022-12-01T09:02:32.869Z,37.98
2022-12-01T09:03:33.128Z,37.06
2022-12-01T09:04:32.261Z,37.03
2022-12-01T09:05:32.671Z,37.05
2022-12-01T09:06:33.012Z,37.44
2022-12-01T09:07:32.186Z,38.43
2022-12-01T09:08:32.738Z,40.19
2022-12-01T09:09:32.753Z,42.03
2022-12-01T09:10:32.974Z,44.60
2022-12-01T09:11:33.283Z,44.86
2022-12-01T09:12:32.536Z,46.37
2022-12-01T09:13:32.851Z,45.38
2022-12-01T09:14:33.158Z,46.19
2022-12-01T09:15:32.538Z,49.66
2022-12-01T09:16:32.765Z,52.81
2022-12-01T09:17:31.947Z,56.20
2022-12-01T09:18:33.236Z,57.95
2022-12-01T09:19:32.657Z,59.86
2022-12-01T09:20:33.949Z,62.95
2022-12-01T09:21:32.193Z,66.94
2022-12-01T09:22:33.344Z,71.52
2022-12-01T09:23:33.633Z,74.30
2022-12-01T09:24:31.972Z,78.46
2022-12-01T09:25:32.738Z,81.79
2022-12-01T09:26:32.577Z,78.62
2022-12-01T09:27:33.827Z,75.65
2022-12-01T09:28:32.102Z,73.42
2022-12-01T09:29:32.452Z,71.89
2022-12-01T09:30:32.757Z,66.42
2022-12-01T09:31:32.913Z,63.34
2022-12-01T09:32:32.227Z,59.41
2022-12-01T09:33:32.555Z,56.97
2022-12-01T09:34:33.779Z,56.59
2022-12-01T09:35:32.180Z,57.80
2022-12-01T09:36:32.615Z,58.62
2022-12-01T09:37:33.682Z,59.62
2022-12-01T09:38:32.047Z,60.68
2022-12-01T09:39:33.322Z,60.15
2022-12-01T09:40:33.475Z,61.36
2022-12-01T09:41:31.771Z,60.70
2022-12-01T09:42:35.315Z,59.41
2022-12-01T09:43:32.352Z,60.38
2022-12-01T09:44:33.600Z,58.48
2022-12-01T09:45:31.831Z,54.49
2022-12-01T09:46:32.379Z,53.76
2022-12-01T09:47:32.586Z,56.66
2022-12-01T09:48:31.757Z,59.28
2022-12-01T09:49:34.145Z,59.82
2022-12-01T09:50:33.305Z,59.49
2022-12-01T09:51:32.541Z,58.14
2022-12-01T09:52:31.992Z,56.71
2022-12-01T09:53:32.436Z,55.94
2022-12-01T09:54:31.642Z,57.23
2022-12-01T09:55:33.896Z,59.19
2022-12-01T09:56:32.092Z,61.02
2022-12-01T09:57:33.342Z,62.93
2022-12-01T09:58:31.709Z,64.18
2022-12-01T09:59:32.036Z,65.90
2022-12-01T10:00:33.338Z,68.93
2022-12-01T10:01:31.688Z,71.48
2022-12-01T10:02:31.960Z,74.08
2022-12-01T10:03:32.166Z,79.31
2022-12-01T10:04:32.478Z,85.74
2022-12-01T10:05:31.796Z,88.96
2022-12-01T10:06:32.192Z,91.06
2022-12-01T10:07:32.322Z,91.99
2022-12-01T10:08:31.706Z,91.25
2022-12-01T10:09:32.036Z,90.40
2022-12-01T10:10:33.148Z,88.85
2022-12-01T10:11:32.546Z,86.73
2022-12-01T10:12:31.771Z,84.99
2022-12-01T10:13:32.096Z,83.92
2022-12-01T10:14:31.342Z,82.87
2022-12-01T10:15:31.577Z,81.98
2022-12-01T10:16:31.981Z,80.91
2022-12-01T10:17:31.156Z,78.85
2022-12-01T10:18:31.481Z,79.73
2022-12-01T10:19:32.356Z,81.28
2022-12-01T10:20:32.126Z,82.54
2022-12-01T10:21:31.255Z,83.34
2022-12-01T10:22:31.546Z,82.99
2022-12-01T10:23:31.826Z,81.06
2022-12-01T10:24:32.227Z,79.73
2022-12-01T10:25:31.401Z,79.61
2022-12-01T10:26:31.650Z,79.22
2022-12-01T10:27:31.926Z,78.31
2022-12-01T10:28:31.161Z,77.51
2022-12-01T10:29:31.481Z,76.53
2022-12-01T10:30:31.877Z,75.76
2022-12-01T10:31:32.133Z,75.67
2022-12-01T10:32:32.267Z,76.36
2022-12-01T10:33:32.506Z,78.06
2022-12-01T10:34:31.845Z,78.02
2022-12-01T10:35:31.086Z,78.27
2022-12-01T10:36:31.546Z,79.94
2022-12-01T10:37:31.723Z,83.95
2022-12-01T10:38:30.875Z,90.42
2022-12-01T10:39:31.198Z,97.79
2022-12-01T10:40:31.447Z,105.01
2022-12-01T10:41:31.726Z,113.54
2022-12-01T10:42:30.986Z,123.91
2022-12-01T10:43:34.417Z,138.56
2022-12-01T10:44:33.579Z,154.98
2022-12-01T10:45:31.900Z,174.14
2022-12-01T10:46:32.086Z,186.13
2022-12-01T10:47:31.520Z,196.92
2022-12-01T10:48:32.782Z,212.17
2022-12-01T10:49:34.056Z,221.27
2022-12-01T10:50:31.226Z,225.93
2022-12-01T10:51:32.521Z,227.59
2022-12-01T10:52:32.107Z,225.12
2022-12-01T10:53:39.422Z,216.72
2022-12-01T10:54:31.336Z,213.96
2022-12-01T10:55:31.849Z,213.98
2022-12-01T10:56:33.991Z,214.78
2022-12-01T10:57:31.149Z,217.00
2022-12-01T10:58:32.388Z,220.61
2022-12-01T10:59:31.778Z,220.25
2022-12-01T11:00:58.549Z,218.04
2022-12-01T11:01:34.467Z,216.40
2022-12-01T11:02:30.726Z,219.40
2022-12-01T11:03:34.130Z,225.96
2022-12-01T11:04:34.212Z,233.13
2022-12-01T11:05:32.383Z,242.10
2022-12-01T11:06:30.608Z,250.25
2022-12-01T11:07:31.981Z,253.37
2022-12-01T11:08:31.159Z,252.95
2022-12-01T11:09:32.514Z,251.91
2022-12-01T11:10:30.785Z,248.74
2022-12-01T11:11:30.997Z,243.89
2022-12-01T11:12:31.266Z,240.06
2022-12-01T11:13:31.568Z,241.70
2022-12-01T11:14:31.853Z,246.59
2022-12-01T11:15:31.130Z,250.06
2022-12-01T11:16:32.471Z,248.79
2022-12-01T11:17:33.727Z,245.74
2022-12-01T11:18:34.025Z,243.94
2022-12-01T11:19:32.202Z,241.43
2022-12-01T11:20:34.240Z,238.15
2022-12-01T11:21:30.657Z,235.62
2022-12-01T11:22:34.022Z,235.73
2022-12-01T11:23:33.226Z,237.03
2022-12-01T11:24:31.427Z,239.48
2022-12-01T11:25:33.829Z,244.46
2022-12-01T11:26:30.994Z,247.28
2022-12-01T11:27:33.316Z,247.55
2022-12-01T11:28:32.523Z,248.20
2022-12-01T11:29:31.714Z,246.97
2022-12-01T11:30:30.956Z,246.46
2022-12-01T11:31:30.218Z,248.91
2022-12-01T11:32:30.520Z,252.45
2022-12-01T11:33:30.683Z,256.64
2022-12-01T11:34:31.952Z,258.29
2022-12-01T11:35:31.242Z,253.64
2022-12-01T11:36:31.569Z,243.04
2022-12-01T11:37:31.997Z,231.65
2022-12-01T11:38:34.006Z,225.64
2022-12-01T11:39:30.182Z,221.64
2022-12-01T11:40:30.447Z,217.44
2022-12-01T11:41:30.718Z,211.83
2022-12-01T11:42:30.981Z,209.71
2022-12-01T11:43:30.518Z,211.17
2022-12-01T11:45:39.076Z,214.45
2022-12-01T11:46:29.987Z,221.30
2022-12-01T11:47:31.332Z,224.73
2022-12-01T11:48:31.691Z,228.87
2022-12-01T11:49:30.896Z,228.80
2022-12-01T11:50:31.142Z,228.03
2022-12-01T11:51:31.436Z,230.32
2022-12-01T11:52:30.718Z,237.69
2022-12-01T11:53:31.116Z,246.24
2022-12-01T11:54:31.332Z,258.23
2022-12-01T11:55:36.799Z,268.30
2022-12-01T11:56:29.799Z,272.56
2022-12-01T11:57:34.887Z,277.07
2022-12-01T11:58:33.569Z,277.86
2022-12-01T11:59:31.636Z,277.93
2022-12-01T12:00:33.109Z,278.11
2022-12-01T12:01:31.267Z,269.30
2022-12-01T12:02:30.636Z,260.21
2022-12-01T12:03:30.910Z,251.62
2022-12-01T12:04:32.121Z,240.93
2022-12-01T12:05:31.552Z,232.28
2022-12-01T12:06:46.029Z,227.68
2022-12-01T12:07:30.999Z,224.51
2022-12-01T12:08:33.327Z,224.30
2022-12-01T12:09:32.499Z,226.10
2022-12-01T12:10:33.770Z,224.60
2022-12-01T12:11:32.058Z,216.88
2022-12-01T12:12:32.277Z,208.33
2022-12-01T12:13:30.616Z,200.08
2022-12-01T12:14:30.567Z,197.77
2022-12-01T12:15:33.217Z,202.75
2022-12-01T12:16:33.655Z,208.91
2022-12-01T12:17:29.637Z,216.55
2022-12-01T12:18:44.372Z,225.32
2022-12-01T12:19:33.881Z,228.66
2022-12-01T12:20:31.391Z,232.99
2022-12-01T12:21:29.596Z,234.27
2022-12-01T12:22:30.097Z,232.35
2022-12-01T12:23:44.727Z,228.89
2022-12-01T12:24:30.471Z,225.79
2022-12-01T12:25:29.691Z,226.59
2022-12-01T12:26:31.978Z,223.40
2022-12-01T12:28:00.517Z,215.27
2022-12-01T12:28:29.545Z,212.42
2022-12-01T12:29:29.807Z,208.26
2022-12-01T12:30:30.296Z,203.20
2022-12-01T12:31:29.397Z,197.58
2022-12-01T12:32:30.602Z,193.27
2022-12-01T12:33:30.046Z,189.60
2022-12-01T12:34:30.261Z,189.26
2022-12-01T12:35:30.532Z,190.01
2022-12-01T12:36:29.762Z,193.86
2022-12-01T12:37:30.057Z,200.84
2022-12-01T12:38:30.381Z,205.95
2022-12-01T12:39:29.584Z,209.70
2022-12-01T12:40:30.867Z,218.20
2022-12-01T12:41:30.122Z,231.43
2022-12-01T12:42:30.402Z,247.68
2022-12-01T12:43:29.646Z,261.10
2022-12-01T12:44:36.628Z,269.43
2022-12-01T12:45:30.146Z,273.73
2022-12-01T12:46:29.510Z,282.34
2022-12-01T12:47:29.786Z,312.51
2022-12-01T12:48:32.723Z,281.62
2022-12-01T12:49:32.540Z,258.23
2022-12-01T12:50:30.492Z,244.87
2022-12-01T12:51:30.910Z,237.41
2022-12-01T12:52:33.055Z,230.24
2022-12-01T12:53:30.547Z,215.35
2022-12-01T12:54:55.668Z,194.26
2022-12-01T12:55:29.923Z,189.31
2022-12-01T12:56:29.152Z,180.67
2022-12-01T12:57:36.732Z,169.85
2022-12-01T12:58:32.825Z,162.54
2022-12-01T12:59:32.076Z,163.05
2022-12-01T13:00:36.577Z,166.58
2022-12-01T13:01:36.818Z,165.65
2022-12-01T13:02:32.919Z,159.78
2022-12-01T13:03:37.142Z,154.96
2022-12-01T13:04:37.552Z,148.93
2022-12-01T13:05:30.652Z,142.48
2022-12-01T13:06:29.986Z,137.11
2022-12-01T13:07:55.198Z,129.77
2022-12-01T13:08:29.443Z,125.47
2022-12-01T13:09:30.341Z,128.42
2022-12-01T13:10:29.932Z,133.56
2022-12-01T13:11:43.862Z,138.42
2022-12-01T13:12:29.536Z,140.20
2022-12-01T13:13:44.381Z,141.87
2022-12-01T13:14:29.066Z,143.96
2022-12-01T13:15:32.487Z,146.14
2022-12-01T13:16:30.692Z,147.25
2022-12-01T13:17:28.952Z,145.81